This is the latest recevied weather packets stored in our database for station/object KB1JDX. If no packets are shown the sender has not sent any weather packets the latest 10 day(s).
| Time | Temp. | Humidity | Pressure | Rain* | Wind** | Luminosity | Snow |
|---|---|---|---|---|---|---|---|
| 1787534225 | 21.67° C | 100% | 1010.8 hPa | 0 mm | 0 m/s | - | - |
| 1787533094 | 21.67° C | 100% | 1010.8 hPa | 0 mm | 0 m/s | - | - |
| 1787530692 | 22.22° C | 100% | 1010 hPa | 0 mm | 0 m/s | - | - |
| 1787530625 | 22.22° C | 100% | 1010 hPa | 0 mm | 0 m/s | - | - |
| 1787529492 | 22.78° C | 100% | 1009.7 hPa | 0 mm | 0 m/s | - | - |
| 1787528292 | 23.33° C | 100% | 1009.2 hPa | 0 mm | 0 m/s | - | - |
| 1787527092 | 23.89° C | 100% | 1009.1 hPa | 0 mm | 0 m/s | - | - |
| 1787527026 | 23.89° C | 100% | 1009 hPa | 0 mm | 0 m/s | - | - |
| 1787524692 | 25° C | 4% | 1008.9 hPa | 0 mm | 0 m/s | - | - |
| 1787523492 | 25° C | 15% | 1008.8 hPa | 0 mm | 0 m/s | - | - |
| 1787523425 | 25° C | 15% | 1008.8 hPa | 0 mm | 0 m/s | - | - |
| 1787522292 | 25.56° C | 13% | 1008.8 hPa | 0 mm | 0 m/s | - | - |
| 1787521092 | 25.56° C | 15% | 1008.7 hPa | 0 mm | 0 m/s | - | - |
| 1787519892 | 25.56° C | 8% | 1008.6 hPa | 0 mm | 0 m/s | - | - |
| 1787519825 | 25.56° C | 8% | 1008.4 hPa | 0 mm | 0 m/s | - | - |
| 1787518693 | 25.56° C | 10% | 1008.6 hPa | 0 mm | 0 m/s | - | - |
| 1787517492 | 25.56° C | 7% | 1008.4 hPa | 0 mm | 0 m/s | - | - |
| 1787516293 | 25° C | 7% | 1008.5 hPa | 0 mm | 0 m/s | - | - |
| 1787516225 | 25° C | 5% | 1008.6 hPa | 0 mm | 0 m/s | - | - |
| 1787515093 | 25° C | 2% | 1008.7 hPa | 0 mm | 0 m/s | - | - |
| 1787513892 | 25° C | 1% | 1008.6 hPa | 0 mm | 0 m/s | - | - |
| 1787512692 | 25° C | 100% | 1008.7 hPa | 0 mm | 0.89 m/s, 196° | - | - |
| 1787512625 | 25° C | 100% | 1008.7 hPa | 0 mm | 0 m/s | - | - |
| 1787511492 | 23.89° C | 100% | 1008.8 hPa | 0 mm | 0 m/s | - | - |
| 1787510292 | 23.33° C | 100% | 1009 hPa | 0 mm | 0 m/s | - | - |
* Rain latest hour (hover to see other rain measurements)
** Current wind speed in m/s (hover to see current wind gust speed)